sensor_id;sensor_type;location;lat;lon;timestamp;temperature;humidity
15083;DHT22;7640;53.116;6.878;2023-06-24T00:01:58;18.60;99.90
15083;DHT22;7640;53.116;6.878;2023-06-24T00:04:27;18.60;99.90
15083;DHT22;7640;53.116;6.878;2023-06-24T00:06:56;18.50;99.90
15083;DHT22;7640;53.116;6.878;2023-06-24T00:09:26;18.50;99.90
15083;DHT22;7640;53.116;6.878;2023-06-24T00:11:55;18.50;99.90
15083;DHT22;7640;53.116;6.878;2023-06-24T00:14:27;18.40;99.90
15083;DHT22;7640;53.116;6.878;2023-06-24T00:16:56;18.40;99.90
15083;DHT22;7640;53.116;6.878;2023-06-24T00:19:26;18.30;99.90
15083;DHT22;7640;53.116;6.878;2023-06-24T00:21:55;18.30;99.90
15083;DHT22;7640;53.116;6.878;2023-06-24T00:24:24;18.30;99.90
15083;DHT22;7640;53.116;6.878;2023-06-24T00:26:53;18.30;99.90
15083;DHT22;7640;53.116;6.878;2023-06-24T00:29:21;18.20;99.90
15083;DHT22;7640;53.116;6.878;2023-06-24T00:31:52;18.20;99.90
15083;DHT22;7640;53.116;6.878;2023-06-24T00:34:20;18.20;99.90
15083;DHT22;7640;53.116;6.878;2023-06-24T00:36:50;18.20;99.90
15083;DHT22;7640;53.116;6.878;2023-06-24T00:39:19;18.20;99.90
15083;DHT22;7640;53.116;6.878;2023-06-24T00:41:47;18.20;99.90
15083;DHT22;7640;53.116;6.878;2023-06-24T00:44:16;18.20;99.90
15083;DHT22;7640;53.116;6.878;2023-06-24T00:46:48;18.20;99.90
15083;DHT22;7640;53.116;6.878;2023-06-24T00:49:18;18.20;99.90
15083;DHT22;7640;53.116;6.878;2023-06-24T00:51:47;18.20;99.90
15083;DHT22;7640;53.116;6.878;2023-06-24T00:54:17;18.20;99.90
15083;DHT22;7640;53.116;6.878;2023-06-24T00:56:47;18.10;99.90
15083;DHT22;7640;53.116;6.878;2023-06-24T00:59:16;18.10;99.90
15083;DHT22;7640;53.116;6.878;2023-06-24T01:01:46;18.10;99.90
15083;DHT22;7640;53.116;6.878;2023-06-24T01:04:18;18.10;99.90
15083;DHT22;7640;53.116;6.878;2023-06-24T01:06:47;18.10;99.90
15083;DHT22;7640;53.116;6.878;2023-06-24T01:09:16;18.10;99.90
15083;DHT22;7640;53.116;6.878;2023-06-24T01:11:45;18.10;99.90
15083;DHT22;7640;53.116;6.878;2023-06-24T01:14:15;18.10;99.90
15083;DHT22;7640;53.116;6.878;2023-06-24T01:16:55;18.00;99.90
15083;DHT22;7640;53.116;6.878;2023-06-24T01:19:44;18.00;99.90
15083;DHT22;7640;53.116;6.878;2023-06-24T01:22:32;18.00;99.90
15083;DHT22;7640;53.116;6.878;2023-06-24T01:25:28;18.00;99.90
15083;DHT22;7640;53.116;6.878;2023-06-24T01:28:39;17.90;99.90
15083;DHT22;7640;53.116;6.878;2023-06-24T01:31:39;17.90;99.90
15083;DHT22;7640;53.116;6.878;2023-06-24T01:34:18;17.90;99.90
15083;DHT22;7640;53.116;6.878;2023-06-24T01:36:57;17.80;99.90
15083;DHT22;7640;53.116;6.878;2023-06-24T01:39:36;17.80;99.90
15083;DHT22;7640;53.116;6.878;2023-06-24T01:42:10;17.80;99.90
15083;DHT22;7640;53.116;6.878;2023-06-24T01:44:40;17.70;99.90
15083;DHT22;7640;53.116;6.878;2023-06-24T01:47:15;17.70;99.90
15083;DHT22;7640;53.116;6.878;2023-06-24T01:49:49;17.70;99.90
15083;DHT22;7640;53.116;6.878;2023-06-24T01:52:23;17.70;99.90
15083;DHT22;7640;53.116;6.878;2023-06-24T01:54:55;17.60;99.90
15083;DHT22;7640;53.116;6.878;2023-06-24T01:57:25;17.60;99.90
15083;DHT22;7640;53.116;6.878;2023-06-24T01:59:56;17.60;99.90
15083;DHT22;7640;53.116;6.878;2023-06-24T02:02:28;17.60;99.90
15083;DHT22;7640;53.116;6.878;2023-06-24T02:04:58;17.60;99.90
15083;DHT22;7640;53.116;6.878;2023-06-24T02:07:28;17.60;99.90
15083;DHT22;7640;53.116;6.878;2023-06-24T02:09:59;17.50;99.90
15083;DHT22;7640;53.116;6.878;2023-06-24T02:12:29;17.50;99.90
15083;DHT22;7640;53.116;6.878;2023-06-24T02:15:03;17.50;99.90
15083;DHT22;7640;53.116;6.878;2023-06-24T02:17:35;17.50;99.90
15083;DHT22;7640;53.116;6.878;2023-06-24T02:20:07;17.50;99.90
15083;DHT22;7640;53.116;6.878;2023-06-24T02:22:38;17.50;99.90
15083;DHT22;7640;53.116;6.878;2023-06-24T02:25:09;17.50;99.90
15083;DHT22;7640;53.116;6.878;2023-06-24T02:27:38;17.50;99.90
15083;DHT22;7640;53.116;6.878;2023-06-24T02:30:08;17.40;99.90
15083;DHT22;7640;53.116;6.878;2023-06-24T02:32:39;17.40;99.90
15083;DHT22;7640;53.116;6.878;2023-06-24T02:35:08;17.40;99.90
15083;DHT22;7640;53.116;6.878;2023-06-24T02:37:37;17.40;99.90
15083;DHT22;7640;53.116;6.878;2023-06-24T02:40:06;17.40;99.90
15083;DHT22;7640;53.116;6.878;2023-06-24T02:42:37;17.40;99.90
15083;DHT22;7640;53.116;6.878;2023-06-24T02:45:06;17.40;99.90
15083;DHT22;7640;53.116;6.878;2023-06-24T02:47:36;17.30;99.90
15083;DHT22;7640;53.116;6.878;2023-06-24T02:50:10;17.30;99.90
15083;DHT22;7640;53.116;6.878;2023-06-24T02:52:39;17.30;99.90
15083;DHT22;7640;53.116;6.878;2023-06-24T02:55:08;17.30;99.90
15083;DHT22;7640;53.116;6.878;2023-06-24T02:57:39;17.30;99.90
15083;DHT22;7640;53.116;6.878;2023-06-24T03:00:09;17.30;99.90
15083;DHT22;7640;53.116;6.878;2023-06-24T03:02:43;17.30;99.90
15083;DHT22;7640;53.116;6.878;2023-06-24T03:05:14;17.30;99.90
15083;DHT22;7640;53.116;6.878;2023-06-24T03:07:44;17.30;99.90
15083;DHT22;7640;53.116;6.878;2023-06-24T03:10:13;17.30;99.90
15083;DHT22;7640;53.116;6.878;2023-06-24T03:12:42;17.30;99.90
15083;DHT22;7640;53.116;6.878;2023-06-24T03:15:11;17.30;99.90
15083;DHT22;7640;53.116;6.878;2023-06-24T03:17:41;17.30;99.90
15083;DHT22;7640;53.116;6.878;2023-06-24T03:20:11;17.30;99.90
15083;DHT22;7640;53.116;6.878;2023-06-24T03:22:40;17.30;99.90
15083;DHT22;7640;53.116;6.878;2023-06-24T03:25:09;17.20;99.90
15083;DHT22;7640;53.116;6.878;2023-06-24T03:27:37;17.20;99.90
15083;DHT22;7640;53.116;6.878;2023-06-24T03:30:07;17.20;99.90
15083;DHT22;7640;53.116;6.878;2023-06-24T03:32:36;17.30;99.90
15083;DHT22;7640;53.116;6.878;2023-06-24T03:35:07;17.30;99.90
15083;DHT22;7640;53.116;6.878;2023-06-24T03:37:36;17.30;99.90
15083;DHT22;7640;53.116;6.878;2023-06-24T03:40:06;17.20;99.90
15083;DHT22;7640;53.116;6.878;2023-06-24T03:42:36;17.20;99.90
15083;DHT22;7640;53.116;6.878;2023-06-24T03:45:05;17.30;99.90
15083;DHT22;7640;53.116;6.878;2023-06-24T03:47:34;17.30;99.90
15083;DHT22;7640;53.116;6.878;2023-06-24T03:50:07;17.30;99.90
15083;DHT22;7640;53.116;6.878;2023-06-24T03:52:36;17.30;99.90
15083;DHT22;7640;53.116;6.878;2023-06-24T03:55:05;17.30;99.90
15083;DHT22;7640;53.116;6.878;2023-06-24T03:57:34;17.30;99.90
15083;DHT22;7640;53.116;6.878;2023-06-24T04:00:03;17.40;99.90
15083;DHT22;7640;53.116;6.878;2023-06-24T04:02:39;17.40;99.90
15083;DHT22;7640;53.116;6.878;2023-06-24T04:05:10;17.40;99.90
15083;DHT22;7640;53.116;6.878;2023-06-24T04:07:39;17.40;99.90
15083;DHT22;7640;53.116;6.878;2023-06-24T04:10:09;17.40;99.90
15083;DHT22;7640;53.116;6.878;2023-06-24T04:12:38;17.50;99.90
15083;DHT22;7640;53.116;6.878;2023-06-24T04:15:08;17.50;99.90
15083;DHT22;7640;53.116;6.878;2023-06-24T04:17:37;17.50;99.90
15083;DHT22;7640;53.116;6.878;2023-06-24T04:20:06;17.50;99.90
15083;DHT22;7640;53.116;6.878;2023-06-24T04:22:40;17.60;99.90
15083;DHT22;7640;53.116;6.878;2023-06-24T04:25:09;17.60;99.90
15083;DHT22;7640;53.116;6.878;2023-06-24T04:27:39;17.60;99.90
15083;DHT22;7640;53.116;6.878;2023-06-24T04:30:08;17.70;99.90
15083;DHT22;7640;53.116;6.878;2023-06-24T04:32:37;17.70;99.90
15083;DHT22;7640;53.116;6.878;2023-06-24T04:35:06;17.80;99.90
15083;DHT22;7640;53.116;6.878;2023-06-24T04:37:35;17.80;99.90
15083;DHT22;7640;53.116;6.878;2023-06-24T04:40:07;17.90;99.90
15083;DHT22;7640;53.116;6.878;2023-06-24T04:42:37;17.90;99.90
15083;DHT22;7640;53.116;6.878;2023-06-24T04:45:06;18.00;99.90
15083;DHT22;7640;53.116;6.878;2023-06-24T04:47:35;18.10;99.90
15083;DHT22;7640;53.116;6.878;2023-06-24T04:50:04;18.10;99.90
15083;DHT22;7640;53.116;6.878;2023-06-24T04:52:36;18.20;99.90
15083;DHT22;7640;53.116;6.878;2023-06-24T04:55:08;18.20;99.90
15083;DHT22;7640;53.116;6.878;2023-06-24T04:57:37;18.30;99.90
15083;DHT22;7640;53.116;6.878;2023-06-24T05:00:07;18.40;99.90
15083;DHT22;7640;53.116;6.878;2023-06-24T05:02:36;18.50;99.90
15083;DHT22;7640;53.116;6.878;2023-06-24T05:05:05;18.50;99.90
15083;DHT22;7640;53.116;6.878;2023-06-24T05:07:34;18.60;99.90
15083;DHT22;7640;53.116;6.878;2023-06-24T05:10:04;18.60;99.90
15083;DHT22;7640;53.116;6.878;2023-06-24T05:12:34;18.70;99.90
15083;DHT22;7640;53.116;6.878;2023-06-24T05:15:03;18.80;99.90
15083;DHT22;7640;53.116;6.878;2023-06-24T05:17:33;18.90;99.90
15083;DHT22;7640;53.116;6.878;2023-06-24T05:20:01;19.00;99.90
15083;DHT22;7640;53.116;6.878;2023-06-24T05:22:31;19.00;99.90
15083;DHT22;7640;53.116;6.878;2023-06-24T05:25:00;19.10;99.90
15083;DHT22;7640;53.116;6.878;2023-06-24T05:27:29;19.20;99.90
15083;DHT22;7640;53.116;6.878;2023-06-24T05:30:00;19.30;99.90
15083;DHT22;7640;53.116;6.878;2023-06-24T05:32:29;19.30;99.90
15083;DHT22;7640;53.116;6.878;2023-06-24T05:34:59;19.40;99.90
15083;DHT22;7640;53.116;6.878;2023-06-24T05:37:28;19.50;99.90
15083;DHT22;7640;53.116;6.878;2023-06-24T05:39:56;19.60;99.90
15083;DHT22;7640;53.116;6.878;2023-06-24T05:42:28;19.60;99.90
15083;DHT22;7640;53.116;6.878;2023-06-24T05:45:02;19.70;99.90
15083;DHT22;7640;53.116;6.878;2023-06-24T05:47:31;19.80;99.90
15083;DHT22;7640;53.116;6.878;2023-06-24T05:50:00;19.90;99.90
15083;DHT22;7640;53.116;6.878;2023-06-24T05:52:31;20.00;99.90
15083;DHT22;7640;53.116;6.878;2023-06-24T05:55:00;20.10;99.90
15083;DHT22;7640;53.116;6.878;2023-06-24T05:57:28;20.20;99.90
15083;DHT22;7640;53.116;6.878;2023-06-24T06:00:02;20.30;99.90
15083;DHT22;7640;53.116;6.878;2023-06-24T06:02:33;20.30;99.90
15083;DHT22;7640;53.116;6.878;2023-06-24T06:05:03;20.40;99.90
15083;DHT22;7640;53.116;6.878;2023-06-24T06:07:32;20.50;99.90
15083;DHT22;7640;53.116;6.878;2023-06-24T06:10:02;20.60;99.90
15083;DHT22;7640;53.116;6.878;2023-06-24T06:12:30;20.70;99.90
15083;DHT22;7640;53.116;6.878;2023-06-24T06:14:59;20.80;99.90
15083;DHT22;7640;53.116;6.878;2023-06-24T06:17:31;20.90;99.90
15083;DHT22;7640;53.116;6.878;2023-06-24T06:20:00;21.00;99.90
15083;DHT22;7640;53.116;6.878;2023-06-24T06:22:29;21.10;99.90
15083;DHT22;7640;53.116;6.878;2023-06-24T06:24:59;21.20;99.90
15083;DHT22;7640;53.116;6.878;2023-06-24T06:27:28;21.30;99.90
15083;DHT22;7640;53.116;6.878;2023-06-24T06:29:57;21.40;99.90
15083;DHT22;7640;53.116;6.878;2023-06-24T06:32:27;21.50;99.90
15083;DHT22;7640;53.116;6.878;2023-06-24T06:34:58;21.60;99.90
15083;DHT22;7640;53.116;6.878;2023-06-24T06:37:27;21.70;99.90
15083;DHT22;7640;53.116;6.878;2023-06-24T06:39:55;21.90;99.90
15083;DHT22;7640;53.116;6.878;2023-06-24T06:42:24;22.00;99.90
15083;DHT22;7640;53.116;6.878;2023-06-24T06:44:52;22.10;99.90
15083;DHT22;7640;53.116;6.878;2023-06-24T06:47:21;22.20;99.90
15083;DHT22;7640;53.116;6.878;2023-06-24T06:49:52;22.30;99.90
15083;DHT22;7640;53.116;6.878;2023-06-24T06:52:21;22.50;99.90
15083;DHT22;7640;53.116;6.878;2023-06-24T06:54:49;22.60;99.90
15083;DHT22;7640;53.116;6.878;2023-06-24T06:57:18;22.90;99.90
15083;DHT22;7640;53.116;6.878;2023-06-24T06:59:46;23.10;99.90
15083;DHT22;7640;53.116;6.878;2023-06-24T07:02:17;23.20;99.90
15083;DHT22;7640;53.116;6.878;2023-06-24T07:04:47;23.40;99.90
15083;DHT22;7640;53.116;6.878;2023-06-24T07:07:19;23.50;99.90
15083;DHT22;7640;53.116;6.878;2023-06-24T07:09:47;23.60;99.90
15083;DHT22;7640;53.116;6.878;2023-06-24T07:12:16;23.70;99.90
15083;DHT22;7640;53.116;6.878;2023-06-24T07:14:45;23.80;99.90
15083;DHT22;7640;53.116;6.878;2023-06-24T07:17:13;23.90;99.90
15083;DHT22;7640;53.116;6.878;2023-06-24T07:19:42;23.90;99.90
15083;DHT22;7640;53.116;6.878;2023-06-24T07:22:11;24.00;99.90
15083;DHT22;7640;53.116;6.878;2023-06-24T07:24:41;24.00;99.90
15083;DHT22;7640;53.116;6.878;2023-06-24T07:27:10;24.20;99.90
15083;DHT22;7640;53.116;6.878;2023-06-24T07:29:38;24.30;99.90
15083;DHT22;7640;53.116;6.878;2023-06-24T07:32:08;24.40;99.90
15083;DHT22;7640;53.116;6.878;2023-06-24T07:34:37;24.60;99.90
15083;DHT22;7640;53.116;6.878;2023-06-24T07:37:06;24.70;99.90
15083;DHT22;7640;53.116;6.878;2023-06-24T07:39:51;24.90;99.90
15083;DHT22;7640;53.116;6.878;2023-06-24T07:42:20;25.00;99.90
15083;DHT22;7640;53.116;6.878;2023-06-24T07:44:48;25.20;99.90
15083;DHT22;7640;53.116;6.878;2023-06-24T07:47:17;25.30;99.90
15083;DHT22;7640;53.116;6.878;2023-06-24T07:49:46;25.50;99.90
15083;DHT22;7640;53.116;6.878;2023-06-24T07:52:16;25.80;99.90
15083;DHT22;7640;53.116;6.878;2023-06-24T07:54:44;25.90;99.90
15083;DHT22;7640;53.116;6.878;2023-06-24T07:57:14;26.00;99.90
15083;DHT22;7640;53.116;6.878;2023-06-24T07:59:43;26.00;99.90
15083;DHT22;7640;53.116;6.878;2023-06-24T08:14:37;26.10;99.90
15083;DHT22;7640;53.116;6.878;2023-06-24T08:17:06;26.20;99.90
15083;DHT22;7640;53.116;6.878;2023-06-24T08:19:34;26.30;99.90
15083;DHT22;7640;53.116;6.878;2023-06-24T08:22:03;26.50;99.90
15083;DHT22;7640;53.116;6.878;2023-06-24T08:24:32;26.50;99.90
15083;DHT22;7640;53.116;6.878;2023-06-24T08:27:00;26.60;99.90
15083;DHT22;7640;53.116;6.878;2023-06-24T08:29:29;26.80;99.90
15083;DHT22;7640;53.116;6.878;2023-06-24T08:31:58;27.00;99.90
15083;DHT22;7640;53.116;6.878;2023-06-24T08:34:27;27.10;99.90
15083;DHT22;7640;53.116;6.878;2023-06-24T08:36:56;27.10;99.90
15083;DHT22;7640;53.116;6.878;2023-06-24T08:39:24;27.10;99.90
15083;DHT22;7640;53.116;6.878;2023-06-24T08:41:53;27.20;99.90
15083;DHT22;7640;53.116;6.878;2023-06-24T08:44:21;27.30;99.90
15083;DHT22;7640;53.116;6.878;2023-06-24T08:46:52;27.30;99.90
15083;DHT22;7640;53.116;6.878;2023-06-24T08:49:27;27.40;99.90
15083;DHT22;7640;53.116;6.878;2023-06-24T08:52:02;27.50;99.90
15083;DHT22;7640;53.116;6.878;2023-06-24T08:54:35;27.60;99.90
15083;DHT22;7640;53.116;6.878;2023-06-24T08:57:06;27.70;99.90
15083;DHT22;7640;53.116;6.878;2023-06-24T08:59:42;27.80;99.90
15083;DHT22;7640;53.116;6.878;2023-06-24T09:02:10;27.80;99.90
15083;DHT22;7640;53.116;6.878;2023-06-24T09:04:42;27.80;99.90
15083;DHT22;7640;53.116;6.878;2023-06-24T09:07:10;27.90;99.90
15083;DHT22;7640;53.116;6.878;2023-06-24T09:09:44;27.90;99.90
15083;DHT22;7640;53.116;6.878;2023-06-24T09:12:14;27.90;99.90
15083;DHT22;7640;53.116;6.878;2023-06-24T09:14:48;27.90;99.90
15083;DHT22;7640;53.116;6.878;2023-06-24T09:17:18;27.90;99.90
15083;DHT22;7640;53.116;6.878;2023-06-24T09:19:51;28.00;99.90
15083;DHT22;7640;53.116;6.878;2023-06-24T09:22:20;28.00;99.90
15083;DHT22;7640;53.116;6.878;2023-06-24T09:24:48;28.00;99.90
15083;DHT22;7640;53.116;6.878;2023-06-24T09:27:18;28.00;99.90
15083;DHT22;7640;53.116;6.878;2023-06-24T09:29:50;28.10;99.90
15083;DHT22;7640;53.116;6.878;2023-06-24T09:32:18;28.20;99.90
15083;DHT22;7640;53.116;6.878;2023-06-24T09:34:47;28.30;99.90
15083;DHT22;7640;53.116;6.878;2023-06-24T09:37:22;28.40;99.90
15083;DHT22;7640;53.116;6.878;2023-06-24T09:39:51;28.40;98.90
15083;DHT22;7640;53.116;6.878;2023-06-24T09:42:21;28.40;98.80
15083;DHT22;7640;53.116;6.878;2023-06-24T09:44:54;28.30;98.70
15083;DHT22;7640;53.116;6.878;2023-06-24T09:47:23;28.20;98.60
15083;DHT22;7640;53.116;6.878;2023-06-24T09:49:54;28.20;99.20
15083;DHT22;7640;53.116;6.878;2023-06-24T09:52:25;28.20;99.80
15083;DHT22;7640;53.116;6.878;2023-06-24T09:54:55;28.30;99.40
15083;DHT22;7640;53.116;6.878;2023-06-24T09:57:29;28.30;98.80
15083;DHT22;7640;53.116;6.878;2023-06-24T09:59:59;28.40;98.90
15083;DHT22;7640;53.116;6.878;2023-06-24T10:02:28;28.50;98.70
15083;DHT22;7640;53.116;6.878;2023-06-24T10:04:59;28.60;98.60
15083;DHT22;7640;53.116;6.878;2023-06-24T10:07:31;28.60;98.60
15083;DHT22;7640;53.116;6.878;2023-06-24T10:10:02;28.70;98.50
15083;DHT22;7640;53.116;6.878;2023-06-24T10:12:31;28.80;98.40
15083;DHT22;7640;53.116;6.878;2023-06-24T10:15:00;28.90;98.30
15083;DHT22;7640;53.116;6.878;2023-06-24T10:17:29;29.00;98.00
15083;DHT22;7640;53.116;6.878;2023-06-24T10:20:03;29.10;97.90
15083;DHT22;7640;53.116;6.878;2023-06-24T10:22:34;29.30;97.60
15083;DHT22;7640;53.116;6.878;2023-06-24T10:25:06;29.30;97.50
15083;DHT22;7640;53.116;6.878;2023-06-24T10:27:39;29.40;97.40
15083;DHT22;7640;53.116;6.878;2023-06-24T10:30:17;29.50;97.20
15083;DHT22;7640;53.116;6.878;2023-06-24T10:32:52;29.60;97.10
15083;DHT22;7640;53.116;6.878;2023-06-24T10:35:23;29.60;96.70
15083;DHT22;7640;53.116;6.878;2023-06-24T10:37:58;29.70;97.00
15083;DHT22;7640;53.116;6.878;2023-06-24T10:40:35;29.70;96.30
15083;DHT22;7640;53.116;6.878;2023-06-24T10:43:25;29.80;95.50
15083;DHT22;7640;53.116;6.878;2023-06-24T10:45:56;29.80;95.30
15083;DHT22;7640;53.116;6.878;2023-06-24T10:48:25;30.00;95.10
15083;DHT22;7640;53.116;6.878;2023-06-24T10:50:54;30.10;94.30
15083;DHT22;7640;53.116;6.878;2023-06-24T10:53:24;30.20;93.90
15083;DHT22;7640;53.116;6.878;2023-06-24T10:55:57;30.30;94.40
15083;DHT22;7640;53.116;6.878;2023-06-24T10:58:26;30.40;94.00
15083;DHT22;7640;53.116;6.878;2023-06-24T11:01:06;30.50;94.20
15083;DHT22;7640;53.116;6.878;2023-06-24T11:03:36;30.70;94.20
15083;DHT22;7640;53.116;6.878;2023-06-24T11:06:10;30.90;93.90
15083;DHT22;7640;53.116;6.878;2023-06-24T11:08:44;31.00;93.60
15083;DHT22;7640;53.116;6.878;2023-06-24T11:11:19;30.90;93.30
15083;DHT22;7640;53.116;6.878;2023-06-24T11:13:49;30.90;93.10
15083;DHT22;7640;53.116;6.878;2023-06-24T11:16:21;30.80;93.20
15083;DHT22;7640;53.116;6.878;2023-06-24T11:18:49;30.80;93.20
15083;DHT22;7640;53.116;6.878;2023-06-24T11:21:18;30.80;93.10
15083;DHT22;7640;53.116;6.878;2023-06-24T11:23:48;30.80;93.10
15083;DHT22;7640;53.116;6.878;2023-06-24T11:26:17;30.80;92.70
15083;DHT22;7640;53.116;6.878;2023-06-24T11:28:47;30.80;92.20
15083;DHT22;7640;53.116;6.878;2023-06-24T11:31:17;30.70;92.40
15083;DHT22;7640;53.116;6.878;2023-06-24T11:33:48;30.50;92.30
15083;DHT22;7640;53.116;6.878;2023-06-24T11:36:17;30.40;92.60
15083;DHT22;7640;53.116;6.878;2023-06-24T11:38:48;30.50;92.70
15083;DHT22;7640;53.116;6.878;2023-06-24T11:41:20;30.60;92.70
15083;DHT22;7640;53.116;6.878;2023-06-24T11:43:50;30.80;92.40
15083;DHT22;7640;53.116;6.878;2023-06-24T11:46:22;31.00;92.30
15083;DHT22;7640;53.116;6.878;2023-06-24T11:48:52;31.10;91.60
15083;DHT22;7640;53.116;6.878;2023-06-24T11:51:23;31.20;91.90
15083;DHT22;7640;53.116;6.878;2023-06-24T11:53:58;31.50;92.40
15083;DHT22;7640;53.116;6.878;2023-06-24T11:56:34;31.80;91.70
15083;DHT22;7640;53.116;6.878;2023-06-24T11:59:04;32.10;91.10
15083;DHT22;7640;53.116;6.878;2023-06-24T12:01:33;32.30;90.80
15083;DHT22;7640;53.116;6.878;2023-06-24T12:04:10;32.50;90.20
15083;DHT22;7640;53.116;6.878;2023-06-24T12:06:39;32.80;90.20
15083;DHT22;7640;53.116;6.878;2023-06-24T12:09:10;33.00;89.40
15083;DHT22;7640;53.116;6.878;2023-06-24T12:11:39;33.50;85.70
15083;DHT22;7640;53.116;6.878;2023-06-24T12:14:08;33.60;87.00
15083;DHT22;7640;53.116;6.878;2023-06-24T12:16:38;33.70;85.90
15083;DHT22;7640;53.116;6.878;2023-06-24T12:19:07;33.80;83.90
15083;DHT22;7640;53.116;6.878;2023-06-24T12:21:37;33.90;84.20
15083;DHT22;7640;53.116;6.878;2023-06-24T12:24:06;33.80;83.70
15083;DHT22;7640;53.116;6.878;2023-06-24T12:26:36;33.70;83.70
15083;DHT22;7640;53.116;6.878;2023-06-24T12:29:05;33.50;83.90
15083;DHT22;7640;53.116;6.878;2023-06-24T12:31:34;33.40;84.40
15083;DHT22;7640;53.116;6.878;2023-06-24T12:34:03;33.40;85.80
15083;DHT22;7640;53.116;6.878;2023-06-24T12:36:32;33.50;84.70
15083;DHT22;7640;53.116;6.878;2023-06-24T12:39:01;33.50;84.20
15083;DHT22;7640;53.116;6.878;2023-06-24T12:41:30;33.50;83.80
15083;DHT22;7640;53.116;6.878;2023-06-24T12:44:01;33.40;84.20
15083;DHT22;7640;53.116;6.878;2023-06-24T12:46:30;33.20;84.30
15083;DHT22;7640;53.116;6.878;2023-06-24T12:48:58;33.10;84.60
15083;DHT22;7640;53.116;6.878;2023-06-24T12:51:27;33.10;85.10
15083;DHT22;7640;53.116;6.878;2023-06-24T12:53:55;33.20;88.30
15083;DHT22;7640;53.116;6.878;2023-06-24T12:56:24;33.70;86.80
15083;DHT22;7640;53.116;6.878;2023-06-24T12:58:52;34.30;85.20
15083;DHT22;7640;53.116;6.878;2023-06-24T13:01:22;34.80;84.20
15083;DHT22;7640;53.116;6.878;2023-06-24T13:03:51;35.30;82.80
15083;DHT22;7640;53.116;6.878;2023-06-24T13:06:19;35.70;81.90
15083;DHT22;7640;53.116;6.878;2023-06-24T13:08:48;35.90;79.60
15083;DHT22;7640;53.116;6.878;2023-06-24T13:11:16;35.90;78.80
15083;DHT22;7640;53.116;6.878;2023-06-24T13:13:45;35.60;78.20
15083;DHT22;7640;53.116;6.878;2023-06-24T13:16:13;35.30;78.80
15083;DHT22;7640;53.116;6.878;2023-06-24T13:18:43;35.10;80.20
15083;DHT22;7640;53.116;6.878;2023-06-24T13:21:12;35.00;80.10
15083;DHT22;7640;53.116;6.878;2023-06-24T13:23:42;34.70;80.60
15083;DHT22;7640;53.116;6.878;2023-06-24T13:26:10;34.30;80.80
15083;DHT22;7640;53.116;6.878;2023-06-24T13:28:39;34.00;81.90
15083;DHT22;7640;53.116;6.878;2023-06-24T13:31:08;33.70;82.70
15083;DHT22;7640;53.116;6.878;2023-06-24T13:33:37;33.50;82.90
15083;DHT22;7640;53.116;6.878;2023-06-24T13:36:08;33.30;83.40
15083;DHT22;7640;53.116;6.878;2023-06-24T13:38:41;33.10;83.80
15083;DHT22;7640;53.116;6.878;2023-06-24T13:41:10;32.90;84.30
15083;DHT22;7640;53.116;6.878;2023-06-24T13:43:38;32.90;84.30
15083;DHT22;7640;53.116;6.878;2023-06-24T13:46:08;32.90;84.20
15083;DHT22;7640;53.116;6.878;2023-06-24T13:48:37;32.70;84.50
15083;DHT22;7640;53.116;6.878;2023-06-24T13:51:08;32.50;84.50
15083;DHT22;7640;53.116;6.878;2023-06-24T13:53:37;32.30;85.50
15083;DHT22;7640;53.116;6.878;2023-06-24T13:56:06;32.20;85.50
15083;DHT22;7640;53.116;6.878;2023-06-24T13:58:34;32.10;85.80
15083;DHT22;7640;53.116;6.878;2023-06-24T14:01:03;32.00;86.20
15083;DHT22;7640;53.116;6.878;2023-06-24T14:03:31;32.00;86.70
15083;DHT22;7640;53.116;6.878;2023-06-24T14:06:00;32.00;86.90
15083;DHT22;7640;53.116;6.878;2023-06-24T14:08:31;31.90;87.20
15083;DHT22;7640;53.116;6.878;2023-06-24T14:11:01;31.80;87.90
15083;DHT22;7640;53.116;6.878;2023-06-24T14:13:31;31.70;88.60
15083;DHT22;7640;53.116;6.878;2023-06-24T14:15:59;31.60;88.90
15083;DHT22;7640;53.116;6.878;2023-06-24T14:18:28;31.40;89.90
15083;DHT22;7640;53.116;6.878;2023-06-24T14:20:59;31.30;91.70
15083;DHT22;7640;53.116;6.878;2023-06-24T14:23:30;31.20;93.40
15083;DHT22;7640;53.116;6.878;2023-06-24T14:25:59;31.10;94.50
15083;DHT22;7640;53.116;6.878;2023-06-24T14:28:28;31.10;95.40
15083;DHT22;7640;53.116;6.878;2023-06-24T14:30:57;31.00;96.10
15083;DHT22;7640;53.116;6.878;2023-06-24T14:33:26;31.00;96.60
15083;DHT22;7640;53.116;6.878;2023-06-24T14:35:55;31.00;96.80
15083;DHT22;7640;53.116;6.878;2023-06-24T14:38:24;30.90;97.00
15083;DHT22;7640;53.116;6.878;2023-06-24T14:40:56;31.00;97.20
15083;DHT22;7640;53.116;6.878;2023-06-24T14:43:25;31.10;97.80
15083;DHT22;7640;53.116;6.878;2023-06-24T14:45:54;31.60;97.60
15083;DHT22;7640;53.116;6.878;2023-06-24T14:48:24;32.00;96.90
15083;DHT22;7640;53.116;6.878;2023-06-24T14:50:53;32.40;95.90
15083;DHT22;7640;53.116;6.878;2023-06-24T14:53:21;32.90;95.50
15083;DHT22;7640;53.116;6.878;2023-06-24T14:55:49;33.40;94.90
15083;DHT22;7640;53.116;6.878;2023-06-24T14:58:19;33.80;93.90
15083;DHT22;7640;53.116;6.878;2023-06-24T15:00:48;33.90;93.00
15083;DHT22;7640;53.116;6.878;2023-06-24T15:03:16;33.90;92.80
15083;DHT22;7640;53.116;6.878;2023-06-24T15:05:45;33.90;93.10
15083;DHT22;7640;53.116;6.878;2023-06-24T15:08:14;34.20;92.90
15083;DHT22;7640;53.116;6.878;2023-06-24T15:10:42;34.40;92.40
15083;DHT22;7640;53.116;6.878;2023-06-24T15:13:11;34.40;92.20
15083;DHT22;7640;53.116;6.878;2023-06-24T15:15:40;34.70;91.90
15083;DHT22;7640;53.116;6.878;2023-06-24T15:18:10;35.00;90.90
15083;DHT22;7640;53.116;6.878;2023-06-24T15:20:40;35.10;90.50
15083;DHT22;7640;53.116;6.878;2023-06-24T15:23:09;35.10;90.50
15083;DHT22;7640;53.116;6.878;2023-06-24T15:25:38;35.40;90.60
15083;DHT22;7640;53.116;6.878;2023-06-24T15:28:06;36.00;89.50
15083;DHT22;7640;53.116;6.878;2023-06-24T15:30:35;36.70;89.10
15083;DHT22;7640;53.116;6.878;2023-06-24T15:33:06;37.30;86.70
15083;DHT22;7640;53.116;6.878;2023-06-24T15:35:34;37.80;84.50
15083;DHT22;7640;53.116;6.878;2023-06-24T15:38:05;37.90;82.30
15083;DHT22;7640;53.116;6.878;2023-06-24T15:40:33;38.00;81.90
15083;DHT22;7640;53.116;6.878;2023-06-24T15:43:02;38.10;80.60
15083;DHT22;7640;53.116;6.878;2023-06-24T15:45:31;37.90;80.30
15083;DHT22;7640;53.116;6.878;2023-06-24T15:48:00;37.40;80.60
15083;DHT22;7640;53.116;6.878;2023-06-24T15:50:31;36.90;81.50
15083;DHT22;7640;53.116;6.878;2023-06-24T15:52:59;36.20;82.10
15083;DHT22;7640;53.116;6.878;2023-06-24T15:55:28;35.70;83.20
15083;DHT22;7640;53.116;6.878;2023-06-24T15:57:57;35.30;84.50
15083;DHT22;7640;53.116;6.878;2023-06-24T16:00:26;34.90;85.10
15083;DHT22;7640;53.116;6.878;2023-06-24T16:02:54;34.50;85.80
15083;DHT22;7640;53.116;6.878;2023-06-24T16:05:23;34.10;87.20
15083;DHT22;7640;53.116;6.878;2023-06-24T16:07:54;33.80;88.10
15083;DHT22;7640;53.116;6.878;2023-06-24T16:10:22;33.50;89.00
15083;DHT22;7640;53.116;6.878;2023-06-24T16:12:53;33.20;90.00
15083;DHT22;7640;53.116;6.878;2023-06-24T16:15:23;33.10;90.30
15083;DHT22;7640;53.116;6.878;2023-06-24T16:17:55;32.90;90.30